sensor_id;sensor_type;location;lat;lon;timestamp;temperature;humidity
67777;DHT22;54576;52.020;5.536;2023-03-14T00:01:14;12.20;94.10
67777;DHT22;54576;52.020;5.536;2023-03-14T00:03:40;12.20;93.80
67777;DHT22;54576;52.020;5.536;2023-03-14T00:06:06;12.20;93.50
67777;DHT22;54576;52.020;5.536;2023-03-14T00:08:32;12.10;93.00
67777;DHT22;54576;52.020;5.536;2023-03-14T00:11:03;12.20;93.80
67777;DHT22;54576;52.020;5.536;2023-03-14T00:13:28;12.10;93.40
67777;DHT22;54576;52.020;5.536;2023-03-14T00:15:54;12.00;91.90
67777;DHT22;54576;52.020;5.536;2023-03-14T00:18:20;12.00;91.80
67777;DHT22;54576;52.020;5.536;2023-03-14T00:20:45;11.90;91.70
67777;DHT22;54576;52.020;5.536;2023-03-14T00:23:11;11.90;91.80
67777;DHT22;54576;52.020;5.536;2023-03-14T00:25:36;11.80;91.80
67777;DHT22;54576;52.020;5.536;2023-03-14T00:28:02;11.80;91.90
67777;DHT22;54576;52.020;5.536;2023-03-14T00:30:27;11.80;91.90
67777;DHT22;54576;52.020;5.536;2023-03-14T00:32:53;11.80;92.20
67777;DHT22;54576;52.020;5.536;2023-03-14T00:35:20;11.80;92.30
67777;DHT22;54576;52.020;5.536;2023-03-14T00:37:47;11.80;92.30
67777;DHT22;54576;52.020;5.536;2023-03-14T00:40:12;11.80;92.30
67777;DHT22;54576;52.020;5.536;2023-03-14T00:42:39;11.70;92.40
67777;DHT22;54576;52.020;5.536;2023-03-14T00:45:05;11.70;92.40
67777;DHT22;54576;52.020;5.536;2023-03-14T00:47:34;11.70;92.20
67777;DHT22;54576;52.020;5.536;2023-03-14T00:50:03;11.70;92.30
67777;DHT22;54576;52.020;5.536;2023-03-14T00:52:28;11.70;92.00
67777;DHT22;54576;52.020;5.536;2023-03-14T00:54:54;11.70;92.20
67777;DHT22;54576;52.020;5.536;2023-03-14T00:57:19;11.70;92.10
67777;DHT22;54576;52.020;5.536;2023-03-14T00:59:45;11.60;92.10
67777;DHT22;54576;52.020;5.536;2023-03-14T01:02:10;11.60;92.00
67777;DHT22;54576;52.020;5.536;2023-03-14T01:04:37;11.60;92.00
67777;DHT22;54576;52.020;5.536;2023-03-14T01:07:04;11.60;92.00
67777;DHT22;54576;52.020;5.536;2023-03-14T01:09:30;11.50;92.30
67777;DHT22;54576;52.020;5.536;2023-03-14T01:11:55;11.40;92.70
67777;DHT22;54576;52.020;5.536;2023-03-14T01:14:21;11.40;92.90
67777;DHT22;54576;52.020;5.536;2023-03-14T01:16:47;11.30;93.20
67777;DHT22;54576;52.020;5.536;2023-03-14T01:19:12;11.30;93.60
67777;DHT22;54576;52.020;5.536;2023-03-14T01:21:38;11.20;94.00
67777;DHT22;54576;52.020;5.536;2023-03-14T01:24:05;11.20;94.50
67777;DHT22;54576;52.020;5.536;2023-03-14T01:26:32;11.10;95.30
67777;DHT22;54576;52.020;5.536;2023-03-14T01:28:59;11.00;96.30
67777;DHT22;54576;52.020;5.536;2023-03-14T01:31:26;10.80;98.00
67777;DHT22;54576;52.020;5.536;2023-03-14T01:33:52;10.70;98.80
67777;DHT22;54576;52.020;5.536;2023-03-14T01:36:18;10.50;99.90
67777;DHT22;54576;52.020;5.536;2023-03-14T01:38:44;10.40;99.90
67777;DHT22;54576;52.020;5.536;2023-03-14T01:41:15;10.30;99.90
67777;DHT22;54576;52.020;5.536;2023-03-14T01:43:41;10.30;99.90
67777;DHT22;54576;52.020;5.536;2023-03-14T01:51:43;10.10;99.90
67777;DHT22;54576;52.020;5.536;2023-03-14T01:56:46;10.00;99.90
67777;DHT22;54576;52.020;5.536;2023-03-14T01:59:13;10.00;99.90
67777;DHT22;54576;52.020;5.536;2023-03-14T02:01:43;10.00;99.90
67777;DHT22;54576;52.020;5.536;2023-03-14T02:04:09;10.00;99.90
67777;DHT22;54576;52.020;5.536;2023-03-14T02:06:45;9.90;99.90
67777;DHT22;54576;52.020;5.536;2023-03-14T02:09:12;9.90;99.90
67777;DHT22;54576;52.020;5.536;2023-03-14T02:11:37;9.90;99.90
67777;DHT22;54576;52.020;5.536;2023-03-14T02:14:03;9.90;99.90
67777;DHT22;54576;52.020;5.536;2023-03-14T02:16:30;9.80;99.90
67777;DHT22;54576;52.020;5.536;2023-03-14T02:18:55;9.90;99.90
67777;DHT22;54576;52.020;5.536;2023-03-14T02:27:17;9.80;99.90
67777;DHT22;54576;52.020;5.536;2023-03-14T02:29:51;9.80;99.90
67777;DHT22;54576;52.020;5.536;2023-03-14T02:32:19;9.70;99.90
67777;DHT22;54576;52.020;5.536;2023-03-14T02:34:49;9.80;99.90
67777;DHT22;54576;52.020;5.536;2023-03-14T02:37:17;9.70;99.90
67777;DHT22;54576;52.020;5.536;2023-03-14T02:39:45;9.70;99.90
67777;DHT22;54576;52.020;5.536;2023-03-14T02:42:12;9.80;99.90
67777;DHT22;54576;52.020;5.536;2023-03-14T02:45:25;9.70;99.90
67777;DHT22;54576;52.020;5.536;2023-03-14T02:47:46;9.70;99.90
67777;DHT22;54576;52.020;5.536;2023-03-14T02:50:18;9.70;99.90
67777;DHT22;54576;52.020;5.536;2023-03-14T02:52:45;9.80;99.90
67777;DHT22;54576;52.020;5.536;2023-03-14T02:55:10;9.70;99.90
67777;DHT22;54576;52.020;5.536;2023-03-14T02:57:36;9.70;99.90
67777;DHT22;54576;52.020;5.536;2023-03-14T03:00:02;9.70;99.90
67777;DHT22;54576;52.020;5.536;2023-03-14T03:02:32;9.70;99.90
67777;DHT22;54576;52.020;5.536;2023-03-14T03:04:57;9.70;99.90
67777;DHT22;54576;52.020;5.536;2023-03-14T03:07:23;9.70;99.90
67777;DHT22;54576;52.020;5.536;2023-03-14T03:09:49;9.80;99.90
67777;DHT22;54576;52.020;5.536;2023-03-14T03:12:14;9.80;99.90
67777;DHT22;54576;52.020;5.536;2023-03-14T03:14:40;9.80;99.90
67777;DHT22;54576;52.020;5.536;2023-03-14T03:17:06;9.80;99.90
67777;DHT22;54576;52.020;5.536;2023-03-14T03:19:34;9.80;99.90
67777;DHT22;54576;52.020;5.536;2023-03-14T03:22:00;9.80;99.90
67777;DHT22;54576;52.020;5.536;2023-03-14T03:24:26;9.80;99.90
67777;DHT22;54576;52.020;5.536;2023-03-14T03:26:52;9.90;99.90
67777;DHT22;54576;52.020;5.536;2023-03-14T03:29:18;9.90;99.90
67777;DHT22;54576;52.020;5.536;2023-03-14T03:31:44;9.90;99.90
67777;DHT22;54576;52.020;5.536;2023-03-14T03:34:11;9.90;99.90
67777;DHT22;54576;52.020;5.536;2023-03-14T03:36:38;9.90;99.90
67777;DHT22;54576;52.020;5.536;2023-03-14T03:39:03;9.90;99.90
67777;DHT22;54576;52.020;5.536;2023-03-14T03:41:30;9.90;99.90
67777;DHT22;54576;52.020;5.536;2023-03-14T03:43:56;9.90;99.90
67777;DHT22;54576;52.020;5.536;2023-03-14T03:46:22;9.90;99.90
67777;DHT22;54576;52.020;5.536;2023-03-14T03:48:47;9.80;99.90
67777;DHT22;54576;52.020;5.536;2023-03-14T03:51:14;9.80;99.90
67777;DHT22;54576;52.020;5.536;2023-03-14T03:53:43;9.90;99.90
67777;DHT22;54576;52.020;5.536;2023-03-14T03:56:09;9.90;99.90
67777;DHT22;54576;52.020;5.536;2023-03-14T03:58:35;9.90;99.90
67777;DHT22;54576;52.020;5.536;2023-03-14T04:01:00;9.90;99.90
67777;DHT22;54576;52.020;5.536;2023-03-14T04:03:26;9.90;99.90
67777;DHT22;54576;52.020;5.536;2023-03-14T04:06:02;9.90;99.90
67777;DHT22;54576;52.020;5.536;2023-03-14T04:08:28;9.90;99.90
67777;DHT22;54576;52.020;5.536;2023-03-14T04:10:56;9.90;99.90
67777;DHT22;54576;52.020;5.536;2023-03-14T04:13:22;9.90;99.90
67777;DHT22;54576;52.020;5.536;2023-03-14T04:15:48;9.90;99.90
67777;DHT22;54576;52.020;5.536;2023-03-14T04:18:13;9.90;99.90
67777;DHT22;54576;52.020;5.536;2023-03-14T04:20:39;9.90;99.90
67777;DHT22;54576;52.020;5.536;2023-03-14T04:23:04;9.90;99.90
67777;DHT22;54576;52.020;5.536;2023-03-14T04:25:30;9.90;99.90
67777;DHT22;54576;52.020;5.536;2023-03-14T04:27:55;10.00;99.90
67777;DHT22;54576;52.020;5.536;2023-03-14T04:30:21;10.00;99.90
67777;DHT22;54576;52.020;5.536;2023-03-14T04:32:47;10.00;99.90
67777;DHT22;54576;52.020;5.536;2023-03-14T04:35:13;10.00;99.90
67777;DHT22;54576;52.020;5.536;2023-03-14T04:37:38;10.00;99.90
67777;DHT22;54576;52.020;5.536;2023-03-14T04:40:09;10.00;99.90
67777;DHT22;54576;52.020;5.536;2023-03-14T04:42:35;10.00;99.90
67777;DHT22;54576;52.020;5.536;2023-03-14T04:45:00;10.00;99.90
67777;DHT22;54576;52.020;5.536;2023-03-14T04:47:26;10.00;99.90
67777;DHT22;54576;52.020;5.536;2023-03-14T04:49:52;10.00;99.90
67777;DHT22;54576;52.020;5.536;2023-03-14T04:52:17;10.00;99.90
67777;DHT22;54576;52.020;5.536;2023-03-14T04:54:43;10.00;99.90
67777;DHT22;54576;52.020;5.536;2023-03-14T04:57:10;10.00;99.90
67777;DHT22;54576;52.020;5.536;2023-03-14T04:59:36;10.00;99.90
67777;DHT22;54576;52.020;5.536;2023-03-14T05:02:01;10.00;99.90
67777;DHT22;54576;52.020;5.536;2023-03-14T05:04:27;10.00;99.90
67777;DHT22;54576;52.020;5.536;2023-03-14T05:06:52;10.00;99.90
67777;DHT22;54576;52.020;5.536;2023-03-14T05:09:18;10.00;99.90
67777;DHT22;54576;52.020;5.536;2023-03-14T05:11:43;10.10;99.90
67777;DHT22;54576;52.020;5.536;2023-03-14T05:14:09;10.00;99.90
67777;DHT22;54576;52.020;5.536;2023-03-14T05:16:35;10.00;99.90
67777;DHT22;54576;52.020;5.536;2023-03-14T05:19:00;10.00;99.90
67777;DHT22;54576;52.020;5.536;2023-03-14T05:21:28;10.00;99.90
67777;DHT22;54576;52.020;5.536;2023-03-14T05:23:53;10.00;99.90
67777;DHT22;54576;52.020;5.536;2023-03-14T05:26:19;10.00;99.90
67777;DHT22;54576;52.020;5.536;2023-03-14T05:28:44;10.00;99.90
67777;DHT22;54576;52.020;5.536;2023-03-14T05:31:10;10.00;99.90
67777;DHT22;54576;52.020;5.536;2023-03-14T05:33:36;10.00;99.90
67777;DHT22;54576;52.020;5.536;2023-03-14T05:36:01;9.90;99.90
67777;DHT22;54576;52.020;5.536;2023-03-14T05:38:27;9.90;99.90
67777;DHT22;54576;52.020;5.536;2023-03-14T05:40:53;9.90;99.90
67777;DHT22;54576;52.020;5.536;2023-03-14T05:43:18;9.90;99.90
67777;DHT22;54576;52.020;5.536;2023-03-14T05:45:44;9.80;99.90
67777;DHT22;54576;52.020;5.536;2023-03-14T05:48:10;9.80;99.90
67777;DHT22;54576;52.020;5.536;2023-03-14T05:50:35;9.80;99.90
67777;DHT22;54576;52.020;5.536;2023-03-14T05:53:01;9.80;99.90
67777;DHT22;54576;52.020;5.536;2023-03-14T05:55:27;9.80;99.90
67777;DHT22;54576;52.020;5.536;2023-03-14T05:57:53;9.70;99.90
67777;DHT22;54576;52.020;5.536;2023-03-14T06:00:19;9.70;99.90
67777;DHT22;54576;52.020;5.536;2023-03-14T06:02:45;9.80;99.90
67777;DHT22;54576;52.020;5.536;2023-03-14T06:05:11;9.70;99.90
67777;DHT22;54576;52.020;5.536;2023-03-14T06:07:38;9.70;99.90
67777;DHT22;54576;52.020;5.536;2023-03-14T06:10:05;9.70;99.90
67777;DHT22;54576;52.020;5.536;2023-03-14T06:12:30;9.70;99.90
67777;DHT22;54576;52.020;5.536;2023-03-14T06:14:56;9.70;99.90
67777;DHT22;54576;52.020;5.536;2023-03-14T06:17:22;9.70;99.90
67777;DHT22;54576;52.020;5.536;2023-03-14T06:19:47;9.70;99.90
67777;DHT22;54576;52.020;5.536;2023-03-14T06:22:13;9.70;99.90
67777;DHT22;54576;52.020;5.536;2023-03-14T06:24:38;9.80;99.90
67777;DHT22;54576;52.020;5.536;2023-03-14T06:27:04;9.80;99.90
67777;DHT22;54576;52.020;5.536;2023-03-14T06:29:30;9.80;99.90
67777;DHT22;54576;52.020;5.536;2023-03-14T06:31:56;9.80;99.90
67777;DHT22;54576;52.020;5.536;2023-03-14T06:34:22;9.80;99.90
67777;DHT22;54576;52.020;5.536;2023-03-14T06:36:47;9.80;99.90
67777;DHT22;54576;52.020;5.536;2023-03-14T06:39:13;9.80;99.90
67777;DHT22;54576;52.020;5.536;2023-03-14T06:41:38;9.80;99.90
67777;DHT22;54576;52.020;5.536;2023-03-14T06:44:04;9.80;99.90
67777;DHT22;54576;52.020;5.536;2023-03-14T06:46:30;9.90;99.90
67777;DHT22;54576;52.020;5.536;2023-03-14T06:48:56;9.90;99.90
67777;DHT22;54576;52.020;5.536;2023-03-14T06:51:21;9.90;99.90
67777;DHT22;54576;52.020;5.536;2023-03-14T06:53:47;9.90;99.90
67777;DHT22;54576;52.020;5.536;2023-03-14T06:56:13;9.90;99.90
67777;DHT22;54576;52.020;5.536;2023-03-14T06:58:38;9.90;99.90
67777;DHT22;54576;52.020;5.536;2023-03-14T07:01:04;9.80;99.90
67777;DHT22;54576;52.020;5.536;2023-03-14T07:03:30;9.80;99.90
67777;DHT22;54576;52.020;5.536;2023-03-14T07:05:55;9.70;99.90
67777;DHT22;54576;52.020;5.536;2023-03-14T07:08:21;9.60;99.90
67777;DHT22;54576;52.020;5.536;2023-03-14T07:10:46;9.40;99.90
67777;DHT22;54576;52.020;5.536;2023-03-14T07:13:12;9.20;99.90
67777;DHT22;54576;52.020;5.536;2023-03-14T07:15:38;9.20;99.90
67777;DHT22;54576;52.020;5.536;2023-03-14T07:18:03;9.10;99.90
67777;DHT22;54576;52.020;5.536;2023-03-14T07:20:29;9.00;99.90
67777;DHT22;54576;52.020;5.536;2023-03-14T07:22:57;9.00;99.90
67777;DHT22;54576;52.020;5.536;2023-03-14T07:25:25;8.90;99.90
67777;DHT22;54576;52.020;5.536;2023-03-14T07:27:50;8.80;99.90
67777;DHT22;54576;52.020;5.536;2023-03-14T07:30:16;8.80;99.90
67777;DHT22;54576;52.020;5.536;2023-03-14T07:32:42;8.80;99.90
67777;DHT22;54576;52.020;5.536;2023-03-14T07:35:08;8.70;99.90
67777;DHT22;54576;52.020;5.536;2023-03-14T07:37:34;8.70;99.90
67777;DHT22;54576;52.020;5.536;2023-03-14T07:40:00;8.70;99.90
67777;DHT22;54576;52.020;5.536;2023-03-14T07:42:25;8.70;99.90
67777;DHT22;54576;52.020;5.536;2023-03-14T07:44:51;8.70;99.90
67777;DHT22;54576;52.020;5.536;2023-03-14T07:47:16;8.70;99.90
67777;DHT22;54576;52.020;5.536;2023-03-14T07:49:42;8.60;99.90
67777;DHT22;54576;52.020;5.536;2023-03-14T07:52:07;8.60;99.90
67777;DHT22;54576;52.020;5.536;2023-03-14T07:54:33;8.60;99.90
67777;DHT22;54576;52.020;5.536;2023-03-14T07:56:58;8.50;99.90
67777;DHT22;54576;52.020;5.536;2023-03-14T07:59:26;8.50;99.90
67777;DHT22;54576;52.020;5.536;2023-03-14T08:01:52;8.50;99.90
67777;DHT22;54576;52.020;5.536;2023-03-14T08:04:18;8.50;99.90
67777;DHT22;54576;52.020;5.536;2023-03-14T08:06:43;8.50;99.90
67777;DHT22;54576;52.020;5.536;2023-03-14T08:09:09;8.50;99.90
67777;DHT22;54576;52.020;5.536;2023-03-14T08:11:35;8.40;99.90
67777;DHT22;54576;52.020;5.536;2023-03-14T08:14:00;8.40;99.90
67777;DHT22;54576;52.020;5.536;2023-03-14T08:16:26;8.50;99.90
67777;DHT22;54576;52.020;5.536;2023-03-14T08:18:51;8.50;99.90
67777;DHT22;54576;52.020;5.536;2023-03-14T08:21:17;8.60;99.90
67777;DHT22;54576;52.020;5.536;2023-03-14T08:23:43;8.50;99.90
67777;DHT22;54576;52.020;5.536;2023-03-14T08:26:09;8.40;99.90
67777;DHT22;54576;52.020;5.536;2023-03-14T08:28:35;8.30;99.90
67777;DHT22;54576;52.020;5.536;2023-03-14T08:31:01;7.80;99.90
67777;DHT22;54576;52.020;5.536;2023-03-14T08:33:29;7.40;99.90
67777;DHT22;54576;52.020;5.536;2023-03-14T08:35:56;7.40;99.90
67777;DHT22;54576;52.020;5.536;2023-03-14T08:38:22;7.30;99.90
67777;DHT22;54576;52.020;5.536;2023-03-14T08:40:48;7.20;99.90
67777;DHT22;54576;52.020;5.536;2023-03-14T08:43:14;7.20;99.90
67777;DHT22;54576;52.020;5.536;2023-03-14T08:45:40;7.10;99.90
67777;DHT22;54576;52.020;5.536;2023-03-14T08:48:05;7.10;99.90
67777;DHT22;54576;52.020;5.536;2023-03-14T08:50:31;6.90;99.90
67777;DHT22;54576;52.020;5.536;2023-03-14T08:52:56;6.90;99.90
67777;DHT22;54576;52.020;5.536;2023-03-14T08:55:25;6.80;99.90
67777;DHT22;54576;52.020;5.536;2023-03-14T08:57:52;6.80;99.90
67777;DHT22;54576;52.020;5.536;2023-03-14T09:00:18;6.90;99.90
67777;DHT22;54576;52.020;5.536;2023-03-14T09:02:44;6.90;99.90
67777;DHT22;54576;52.020;5.536;2023-03-14T09:05:10;7.00;99.90
67777;DHT22;54576;52.020;5.536;2023-03-14T09:07:36;7.00;99.90
67777;DHT22;54576;52.020;5.536;2023-03-14T09:10:03;7.00;99.90
67777;DHT22;54576;52.020;5.536;2023-03-14T09:12:29;7.00;99.90
67777;DHT22;54576;52.020;5.536;2023-03-14T09:14:54;7.10;99.90
67777;DHT22;54576;52.020;5.536;2023-03-14T09:17:20;7.10;99.90
67777;DHT22;54576;52.020;5.536;2023-03-14T09:19:46;7.20;99.90
67777;DHT22;54576;52.020;5.536;2023-03-14T09:22:11;7.40;99.90
67777;DHT22;54576;52.020;5.536;2023-03-14T09:24:37;7.50;99.90
67777;DHT22;54576;52.020;5.536;2023-03-14T09:27:02;7.50;99.90
67777;DHT22;54576;52.020;5.536;2023-03-14T09:29:28;7.50;99.90
67777;DHT22;54576;52.020;5.536;2023-03-14T09:31:53;7.60;99.90
67777;DHT22;54576;52.020;5.536;2023-03-14T09:34:19;7.70;99.90
67777;DHT22;54576;52.020;5.536;2023-03-14T09:36:45;7.70;99.90
67777;DHT22;54576;52.020;5.536;2023-03-14T09:39:11;7.60;99.90
67777;DHT22;54576;52.020;5.536;2023-03-14T09:41:40;7.70;99.90
67777;DHT22;54576;52.020;5.536;2023-03-14T09:44:30;7.70;98.40
67777;DHT22;54576;52.020;5.536;2023-03-14T09:47:01;7.70;95.80
67777;DHT22;54576;52.020;5.536;2023-03-14T09:49:30;7.70;99.50
67777;DHT22;54576;52.020;5.536;2023-03-14T09:51:59;7.80;94.80
67777;DHT22;54576;52.020;5.536;2023-03-14T09:54:44;7.90;95.80
67777;DHT22;54576;52.020;5.536;2023-03-14T09:57:15;8.00;93.00
67777;DHT22;54576;52.020;5.536;2023-03-14T09:59:45;8.00;96.00
67777;DHT22;54576;52.020;5.536;2023-03-14T10:02:17;8.10;92.20
67777;DHT22;54576;52.020;5.536;2023-03-14T10:04:48;8.10;95.50
67777;DHT22;54576;52.020;5.536;2023-03-14T10:07:16;8.00;90.20
67777;DHT22;54576;52.020;5.536;2023-03-14T10:09:46;7.90;92.90
67777;DHT22;54576;52.020;5.536;2023-03-14T10:12:12;7.80;93.30
67777;DHT22;54576;52.020;5.536;2023-03-14T10:14:48;7.90;95.10
67777;DHT22;54576;52.020;5.536;2023-03-14T10:17:16;8.00;91.50
67777;DHT22;54576;52.020;5.536;2023-03-14T10:19:59;7.90;91.60
67777;DHT22;54576;52.020;5.536;2023-03-14T10:22:27;7.90;90.00
67777;DHT22;54576;52.020;5.536;2023-03-14T10:25:03;7.90;90.70
67777;DHT22;54576;52.020;5.536;2023-03-14T10:27:34;7.90;91.90
67777;DHT22;54576;52.020;5.536;2023-03-14T10:30:03;8.00;91.60
67777;DHT22;54576;52.020;5.536;2023-03-14T10:32:38;8.10;91.90
67777;DHT22;54576;52.020;5.536;2023-03-14T10:37:50;8.00;91.90
67777;DHT22;54576;52.020;5.536;2023-03-14T10:40:18;7.90;96.60
67777;DHT22;54576;52.020;5.536;2023-03-14T10:42:44;7.80;99.30
67777;DHT22;54576;52.020;5.536;2023-03-14T10:45:31;7.70;99.90
67777;DHT22;54576;52.020;5.536;2023-03-14T10:53:20;7.50;91.40
67777;DHT22;54576;52.020;5.536;2023-03-14T10:55:45;7.60;90.90
67777;DHT22;54576;52.020;5.536;2023-03-14T10:58:23;7.70;91.50
67777;DHT22;54576;52.020;5.536;2023-03-14T11:01:16;7.80;89.50
67777;DHT22;54576;52.020;5.536;2023-03-14T11:03:42;7.80;92.40
67777;DHT22;54576;52.020;5.536;2023-03-14T11:06:18;7.80;91.10
67777;DHT22;54576;52.020;5.536;2023-03-14T11:08:57;7.80;92.10
67777;DHT22;54576;52.020;5.536;2023-03-14T11:11:29;7.70;90.50
67777;DHT22;54576;52.020;5.536;2023-03-14T11:14:15;7.70;87.00
67777;DHT22;54576;52.020;5.536;2023-03-14T11:19:23;7.60;86.50
67777;DHT22;54576;52.020;5.536;2023-03-14T11:27:54;7.60;79.20
67777;DHT22;54576;52.020;5.536;2023-03-14T11:33:16;7.70;73.10
67777;DHT22;54576;52.020;5.536;2023-03-14T11:35:57;7.80;73.30
67777;DHT22;54576;52.020;5.536;2023-03-14T11:40:57;7.70;74.00
67777;DHT22;54576;52.020;5.536;2023-03-14T11:43:30;7.80;78.70
67777;DHT22;54576;52.020;5.536;2023-03-14T11:46:10;7.90;72.10
67777;DHT22;54576;52.020;5.536;2023-03-14T11:51:29;8.20;70.00
67777;DHT22;54576;52.020;5.536;2023-03-14T11:54:27;8.40;69.10
67777;DHT22;54576;52.020;5.536;2023-03-14T11:57:10;8.50;66.80
67777;DHT22;54576;52.020;5.536;2023-03-14T11:59:55;8.50;68.30
67777;DHT22;54576;52.020;5.536;2023-03-14T12:02:27;8.40;67.40
67777;DHT22;54576;52.020;5.536;2023-03-14T12:11:04;8.50;65.40
67777;DHT22;54576;52.020;5.536;2023-03-14T12:13:37;8.60;65.50
67777;DHT22;54576;52.020;5.536;2023-03-14T12:18:52;8.30;62.00
67777;DHT22;54576;52.020;5.536;2023-03-14T12:21:18;8.30;63.60
67777;DHT22;54576;52.020;5.536;2023-03-14T12:23:55;8.30;62.90
67777;DHT22;54576;52.020;5.536;2023-03-14T12:26:27;8.30;60.30
67777;DHT22;54576;52.020;5.536;2023-03-14T12:29:17;8.50;64.30
67777;DHT22;54576;52.020;5.536;2023-03-14T12:31:45;8.60;66.50
67777;DHT22;54576;52.020;5.536;2023-03-14T12:36:52;8.80;63.20
67777;DHT22;54576;52.020;5.536;2023-03-14T12:44:50;8.70;59.40
67777;DHT22;54576;52.020;5.536;2023-03-14T12:49:52;8.70;59.40
67777;DHT22;54576;52.020;5.536;2023-03-14T12:55:35;8.70;56.50
67777;DHT22;54576;52.020;5.536;2023-03-14T12:58:29;8.70;57.90
67777;DHT22;54576;52.020;5.536;2023-03-14T13:00:59;8.80;56.40
67777;DHT22;54576;52.020;5.536;2023-03-14T13:03:38;8.80;58.10
67777;DHT22;54576;52.020;5.536;2023-03-14T13:06:04;8.80;61.10
67777;DHT22;54576;52.020;5.536;2023-03-14T13:08:43;8.90;58.60
67777;DHT22;54576;52.020;5.536;2023-03-14T13:11:21;9.10;60.50
67777;DHT22;54576;52.020;5.536;2023-03-14T13:13:57;9.20;57.90
67777;DHT22;54576;52.020;5.536;2023-03-14T13:16:24;9.20;59.90
67777;DHT22;54576;52.020;5.536;2023-03-14T13:19:15;9.10;57.50
67777;DHT22;54576;52.020;5.536;2023-03-14T13:21:42;9.10;58.30
67777;DHT22;54576;52.020;5.536;2023-03-14T13:24:23;9.10;60.10
67777;DHT22;54576;52.020;5.536;2023-03-14T13:26:53;9.10;54.30
67777;DHT22;54576;52.020;5.536;2023-03-14T13:29:27;9.00;56.20
67777;DHT22;54576;52.020;5.536;2023-03-14T13:31:59;9.00;58.30
67777;DHT22;54576;52.020;5.536;2023-03-14T13:34:28;8.80;54.10
67777;DHT22;54576;52.020;5.536;2023-03-14T13:36:55;8.70;53.70
67777;DHT22;54576;52.020;5.536;2023-03-14T13:39:23;8.60;57.70
67777;DHT22;54576;52.020;5.536;2023-03-14T13:41:53;8.60;57.50
67777;DHT22;54576;52.020;5.536;2023-03-14T13:44:33;8.70;56.30
67777;DHT22;54576;52.020;5.536;2023-03-14T13:47:00;8.80;57.50
67777;DHT22;54576;52.020;5.536;2023-03-14T13:49:27;9.10;52.30
67777;DHT22;54576;52.020;5.536;2023-03-14T13:51:54;9.30;60.00
67777;DHT22;54576;52.020;5.536;2023-03-14T13:54:21;9.30;53.60
67777;DHT22;54576;52.020;5.536;2023-03-14T13:56:48;9.20;53.40
67777;DHT22;54576;52.020;5.536;2023-03-14T13:59:35;9.20;51.10
67777;DHT22;54576;52.020;5.536;2023-03-14T14:02:11;9.00;51.60
67777;DHT22;54576;52.020;5.536;2023-03-14T14:04:38;8.80;52.10
67777;DHT22;54576;52.020;5.536;2023-03-14T14:07:08;8.90;53.00
67777;DHT22;54576;52.020;5.536;2023-03-14T14:09:40;8.80;53.10
67777;DHT22;54576;52.020;5.536;2023-03-14T14:12:17;8.80;56.80
67777;DHT22;54576;52.020;5.536;2023-03-14T14:15:06;8.70;51.20
67777;DHT22;54576;52.020;5.536;2023-03-14T14:17:38;8.70;54.10
67777;DHT22;54576;52.020;5.536;2023-03-14T14:20:11;8.60;54.50
67777;DHT22;54576;52.020;5.536;2023-03-14T14:22:38;8.70;58.00
67777;DHT22;54576;52.020;5.536;2023-03-14T14:25:05;8.70;56.70
67777;DHT22;54576;52.020;5.536;2023-03-14T14:27:37;8.70;58.40
67777;DHT22;54576;52.020;5.536;2023-03-14T14:30:21;8.70;57.40
67777;DHT22;54576;52.020;5.536;2023-03-14T14:32:51;8.60;59.30
67777;DHT22;54576;52.020;5.536;2023-03-14T14:35:24;8.60;58.90
67777;DHT22;54576;52.020;5.536;2023-03-14T14:37:51;8.50;56.80
67777;DHT22;54576;52.020;5.536;2023-03-14T14:40:20;8.40;56.70
67777;DHT22;54576;52.020;5.536;2023-03-14T14:42:47;8.30;55.90
67777;DHT22;54576;52.020;5.536;2023-03-14T14:45:16;8.20;58.40
67777;DHT22;54576;52.020;5.536;2023-03-14T14:47:53;8.30;58.00
67777;DHT22;54576;52.020;5.536;2023-03-14T14:50:59;8.30;58.40
67777;DHT22;54576;52.020;5.536;2023-03-14T14:53:38;8.30;57.90
67777;DHT22;54576;52.020;5.536;2023-03-14T14:56:17;8.30;59.00
67777;DHT22;54576;52.020;5.536;2023-03-14T14:58:45;8.30;54.80
67777;DHT22;54576;52.020;5.536;2023-03-14T15:01:19;8.10;53.70
67777;DHT22;54576;52.020;5.536;2023-03-14T15:03:48;8.10;56.10
67777;DHT22;54576;52.020;5.536;2023-03-14T15:06:15;8.00;54.00
67777;DHT22;54576;52.020;5.536;2023-03-14T15:08:43;8.00;55.00
67777;DHT22;54576;52.020;5.536;2023-03-14T15:11:16;8.00;58.00
67777;DHT22;54576;52.020;5.536;2023-03-14T15:13:42;8.00;55.50
67777;DHT22;54576;52.020;5.536;2023-03-14T15:16:10;8.10;58.10
67777;DHT22;54576;52.020;5.536;2023-03-14T15:18:36;8.00;56.80
67777;DHT22;54576;52.020;5.536;2023-03-14T15:21:02;8.00;52.00
67777;DHT22;54576;52.020;5.536;2023-03-14T15:23:27;7.90;52.70
67777;DHT22;54576;52.020;5.536;2023-03-14T15:25:53;7.90;55.40
67777;DHT22;54576;52.020;5.536;2023-03-14T15:28:21;8.00;57.90
67777;DHT22;54576;52.020;5.536;2023-03-14T15:30:53;7.90;57.50
67777;DHT22;54576;52.020;5.536;2023-03-14T15:33:18;7.90;54.50
67777;DHT22;54576;52.020;5.536;2023-03-14T15:35:45;7.90;57.00
67777;DHT22;54576;52.020;5.536;2023-03-14T15:38:12;8.00;57.80
67777;DHT22;54576;52.020;5.536;2023-03-14T15:40:39;7.90;53.30
67777;DHT22;54576;52.020;5.536;2023-03-14T15:43:04;8.00;55.60
67777;DHT22;54576;52.020;5.536;2023-03-14T15:45:30;7.90;55.20
67777;DHT22;54576;52.020;5.536;2023-03-14T15:47:55;7.90;54.60
67777;DHT22;54576;52.020;5.536;2023-03-14T15:50:21;7.80;55.90
67777;DHT22;54576;52.020;5.536;2023-03-14T15:52:47;7.80;56.60
67777;DHT22;54576;52.020;5.536;2023-03-14T15:55:13;7.80;59.10
67777;DHT22;54576;52.020;5.536;2023-03-14T15:57:43;7.80;59.20
67777;DHT22;54576;52.020;5.536;2023-03-14T16:00:14;7.80;57.70
67777;DHT22;54576;52.020;5.536;2023-03-14T16:02:41;7.80;59.70
67777;DHT22;54576;52.020;5.536;2023-03-14T16:05:11;7.80;60.20
67777;DHT22;54576;52.020;5.536;2023-03-14T16:07:37;7.80;60.00
67777;DHT22;54576;52.020;5.536;2023-03-14T16:10:03;7.80;59.80
67777;DHT22;54576;52.020;5.536;2023-03-14T16:12:30;7.80;59.10
67777;DHT22;54576;52.020;5.536;2023-03-14T16:14:56;7.70;55.30
67777;DHT22;54576;52.020;5.536;2023-03-14T16:17:22;7.60;54.30
67777;DHT22;54576;52.020;5.536;2023-03-14T16:19:47;7.60;57.10
67777;DHT22;54576;52.020;5.536;2023-03-14T16:22:13;7.50;56.20
67777;DHT22;54576;52.020;5.536;2023-03-14T16:24:38;7.50;55.10
67777;DHT22;54576;52.020;5.536;2023-03-14T16:27:04;7.40;56.20
67777;DHT22;54576;52.020;5.536;2023-03-14T16:29:30;7.40;56.60
67777;DHT22;54576;52.020;5.536;2023-03-14T16:31:55;7.40;59.10
67777;DHT22;54576;52.020;5.536;2023-03-14T16:34:21;7.30;58.40
67777;DHT22;54576;52.020;5.536;2023-03-14T16:36:46;7.30;59.40
67777;DHT22;54576;52.020;5.536;2023-03-14T16:39:12;7.30;59.10
67777;DHT22;54576;52.020;5.536;2023-03-14T16:41:38;7.30;60.20
67777;DHT22;54576;52.020;5.536;2023-03-14T16:44:03;7.30;59.90
67777;DHT22;54576;52.020;5.536;2023-03-14T16:46:29;7.30;59.00
67777;DHT22;54576;52.020;5.536;2023-03-14T16:48:55;7.30;60.80
67777;DHT22;54576;52.020;5.536;2023-03-14T16:51:22;7.30;62.30